createdAt,value
2022-11-22T00:01:09.983Z,76386.00
2022-11-22T00:03:36.650Z,76380.22
2022-11-22T00:06:03.439Z,76382.13
2022-11-22T00:08:30.038Z,76386.00
2022-11-22T00:10:56.505Z,76387.91
2022-11-22T00:13:23.000Z,76393.69
2022-11-22T00:15:59.507Z,76389.84
2022-11-22T00:18:26.100Z,76393.69
2022-11-22T00:20:52.613Z,76412.97
2022-11-22T00:23:19.169Z,76424.53
2022-11-22T00:25:45.704Z,76438.03
2022-11-22T00:28:12.351Z,76432.25
2022-11-22T00:30:38.887Z,76439.94
2022-11-22T00:33:05.397Z,76445.72
2022-11-22T00:35:32.053Z,76451.50
2022-11-22T00:37:58.623Z,76455.38
2022-11-22T00:40:25.086Z,76465.00
2022-11-22T00:42:51.631Z,76463.06
2022-11-22T00:45:18.175Z,76457.28
2022-11-22T00:47:44.635Z,76466.94
2022-11-22T00:50:11.413Z,76474.63
2022-11-22T00:52:37.900Z,76476.56
2022-11-22T00:55:04.688Z,76468.84
2022-11-22T00:57:31.229Z,76474.63
2022-11-22T00:59:57.772Z,76474.63
2022-11-22T01:02:24.262Z,76478.50
2022-11-22T01:04:50.786Z,76482.34
2022-11-22T01:07:17.359Z,76486.19
2022-11-22T01:09:44.003Z,76484.28
2022-11-22T01:12:10.567Z,76491.97
2022-11-22T01:14:37.128Z,76497.75
2022-11-22T01:17:03.889Z,76497.75
2022-11-22T01:19:30.689Z,76497.75
2022-11-22T01:21:57.465Z,76505.47
2022-11-22T01:24:24.108Z,76505.47
2022-11-22T01:26:50.633Z,76490.06
2022-11-22T01:29:17.124Z,76491.97
2022-11-22T01:31:43.818Z,76497.75
2022-11-22T01:34:10.319Z,76493.91
2022-11-22T01:36:36.853Z,76486.19
2022-11-22T01:39:03.737Z,76478.50
2022-11-22T01:41:30.371Z,76468.84
2022-11-22T01:43:56.870Z,76459.22
2022-11-22T01:46:38.305Z,76459.22
2022-11-22T01:49:11.718Z,76443.81
2022-11-22T01:51:43.285Z,76449.59
2022-11-22T01:54:12.955Z,76447.66
2022-11-22T01:56:41.710Z,76445.72
2022-11-22T01:59:09.776Z,76443.81
2022-11-22T02:01:36.498Z,76439.94
2022-11-22T02:04:04.407Z,76439.94
2022-11-22T02:06:47.530Z,76424.53
2022-11-22T02:09:14.751Z,76414.91
2022-11-22T02:11:46.063Z,76418.75
2022-11-22T02:14:12.789Z,76407.19
2022-11-22T02:16:40.607Z,76407.19
2022-11-22T02:19:13.569Z,76405.25
2022-11-22T02:21:40.163Z,76395.63
2022-11-22T02:24:13.394Z,76399.47
2022-11-22T02:26:39.986Z,76393.69
2022-11-22T02:29:07.737Z,76386.00
2022-11-22T02:31:34.766Z,76376.34
2022-11-22T02:34:01.977Z,76362.88
2022-11-22T02:36:29.410Z,76359.00
2022-11-22T02:38:56.189Z,76355.16
2022-11-22T02:41:22.683Z,76343.59
2022-11-22T02:43:49.276Z,76339.75
2022-11-22T02:46:20.606Z,76332.03
2022-11-22T02:48:47.847Z,76328.19
2022-11-22T02:51:17.124Z,76314.69
2022-11-22T02:53:44.259Z,76308.91
2022-11-22T02:56:10.888Z,76301.22
2022-11-22T02:58:37.352Z,76299.28
2022-11-22T03:01:03.936Z,76285.78
2022-11-22T03:03:31.295Z,76274.22
2022-11-22T03:05:57.880Z,76266.53
2022-11-22T03:08:24.363Z,76270.38
2022-11-22T03:10:50.917Z,76262.66
2022-11-22T03:13:17.481Z,76262.66
2022-11-22T03:15:46.639Z,76260.75
2022-11-22T03:18:13.883Z,76256.91
2022-11-22T03:20:40.368Z,76251.13
2022-11-22T03:23:06.988Z,76262.66
2022-11-22T03:25:36.472Z,76262.66
2022-11-22T03:28:03.065Z,76256.91
2022-11-22T03:30:29.615Z,76254.97
2022-11-22T03:32:56.163Z,76251.13
2022-11-22T03:35:22.707Z,76237.63
2022-11-22T03:37:49.387Z,76243.41
2022-11-22T03:40:15.928Z,76243.41
2022-11-22T03:42:42.431Z,76222.22
2022-11-22T03:45:09.284Z,76220.28
2022-11-22T03:47:35.776Z,76212.56
2022-11-22T03:50:02.495Z,76220.28
2022-11-22T03:52:29.564Z,76220.28
2022-11-22T03:54:56.407Z,76220.28
2022-11-22T03:57:23.000Z,76218.34
2022-11-22T03:59:49.470Z,76206.78
2022-11-22T04:02:17.097Z,76201.00
2022-11-22T04:04:43.649Z,76199.09
2022-11-22T04:07:10.363Z,76193.31
2022-11-22T04:09:36.999Z,76189.44
2022-11-22T04:12:03.589Z,76179.81
2022-11-22T04:14:48.566Z,76168.25
2022-11-22T04:17:35.069Z,76162.47
2022-11-22T04:20:20.333Z,76162.47
2022-11-22T04:22:54.956Z,76154.78
2022-11-22T04:25:21.508Z,76154.78
2022-11-22T04:27:47.980Z,76145.13
2022-11-22T04:30:20.099Z,76147.06
2022-11-22T04:32:47.444Z,76143.22
2022-11-22T04:35:15.312Z,76143.22
2022-11-22T04:37:42.513Z,76139.34
2022-11-22T04:40:09.696Z,76131.66
2022-11-22T04:42:55.099Z,76127.78
2022-11-22T04:45:21.718Z,76125.88
2022-11-22T04:48:00.488Z,76127.78
2022-11-22T04:50:49.839Z,76120.09
2022-11-22T04:53:17.099Z,76114.31
2022-11-22T04:55:44.530Z,76112.38
2022-11-22T04:58:11.213Z,76104.69
2022-11-22T05:00:37.995Z,76100.81
2022-11-22T05:03:04.987Z,76100.81
2022-11-22T05:05:34.437Z,76093.13
2022-11-22T05:08:01.107Z,76087.34
2022-11-22T05:10:27.745Z,76081.56
2022-11-22T05:12:55.078Z,76073.84
2022-11-22T05:15:21.546Z,76073.84
2022-11-22T05:17:48.035Z,76064.22
2022-11-22T05:20:14.727Z,76060.38
2022-11-22T05:22:59.728Z,76048.81
2022-11-22T05:25:26.280Z,76050.72
2022-11-22T05:27:53.240Z,76052.66
2022-11-22T05:30:19.804Z,76052.66
2022-11-22T05:32:46.299Z,76050.72
2022-11-22T05:35:12.903Z,76043.03
2022-11-22T05:37:39.464Z,76050.72
2022-11-22T05:40:06.342Z,76050.72
2022-11-22T05:42:33.530Z,76054.59
2022-11-22T05:44:59.985Z,76062.28
2022-11-22T05:47:26.534Z,76073.84
2022-11-22T05:49:53.068Z,76077.69
2022-11-22T05:52:19.569Z,76081.56
2022-11-22T05:54:46.057Z,76081.56
2022-11-22T05:57:12.612Z,76085.41
2022-11-22T05:59:43.937Z,76077.69
2022-11-22T06:02:10.990Z,76079.63
2022-11-22T06:04:37.590Z,76083.47
2022-11-22T06:07:09.658Z,76081.56
2022-11-22T06:09:36.713Z,76093.13
2022-11-22T06:12:03.297Z,76089.25
2022-11-22T06:14:29.918Z,76108.53
2022-11-22T06:16:56.706Z,76112.38
2022-11-22T06:19:23.294Z,76110.47
2022-11-22T06:21:49.860Z,76116.25
2022-11-22T06:24:16.409Z,76122.00
2022-11-22T06:26:42.891Z,76125.88
2022-11-22T06:29:09.467Z,76129.72
2022-11-22T06:31:37.001Z,76131.66
2022-11-22T06:34:03.510Z,76143.22
2022-11-22T06:36:31.602Z,76147.06
2022-11-22T06:38:58.197Z,76145.13
2022-11-22T06:41:25.867Z,76147.06
2022-11-22T06:43:53.292Z,76147.06
2022-11-22T06:46:22.672Z,76147.06
2022-11-22T06:48:49.846Z,76150.91
2022-11-22T06:51:23.815Z,76147.06
2022-11-22T06:53:50.941Z,76150.91
2022-11-22T06:56:18.954Z,76147.06
2022-11-22T06:58:45.956Z,76141.28
2022-11-22T07:01:16.896Z,76141.28
2022-11-22T07:03:43.472Z,76150.91
2022-11-22T07:06:11.261Z,76150.91
2022-11-22T07:08:38.124Z,76147.06
2022-11-22T07:11:07.766Z,76143.22
2022-11-22T07:13:34.938Z,76145.13
2022-11-22T07:16:02.681Z,76143.22
2022-11-22T07:18:29.204Z,76145.13
2022-11-22T07:21:12.218Z,76147.06
2022-11-22T07:23:39.781Z,76143.22
2022-11-22T07:26:06.478Z,76141.28
2022-11-22T07:28:33.092Z,76147.06
2022-11-22T07:31:00.753Z,76141.28
2022-11-22T07:33:27.478Z,76150.91
2022-11-22T07:35:54.324Z,76149.00
2022-11-22T07:38:21.184Z,76156.69
2022-11-22T07:40:47.907Z,76162.47
2022-11-22T07:43:14.485Z,76164.41
2022-11-22T07:45:40.993Z,76162.47
2022-11-22T07:48:07.775Z,76162.47
2022-11-22T07:50:34.487Z,76170.19
2022-11-22T07:53:01.232Z,76168.25
2022-11-22T07:55:28.161Z,76162.47
2022-11-22T07:57:54.706Z,76166.34
2022-11-22T08:00:21.359Z,76170.19
2022-11-22T08:02:47.875Z,76170.19
2022-11-22T08:05:14.362Z,76168.25
2022-11-22T08:07:45.607Z,76174.03
2022-11-22T08:10:12.322Z,76170.19
2022-11-22T08:12:38.916Z,76168.25
2022-11-22T08:15:05.634Z,76168.25
2022-11-22T08:17:32.328Z,76177.91
2022-11-22T08:19:58.790Z,76166.34
2022-11-22T08:22:25.311Z,76174.03
2022-11-22T08:24:51.887Z,76170.19
2022-11-22T08:27:18.579Z,76156.69
2022-11-22T08:29:45.084Z,76150.91
2022-11-22T08:32:11.575Z,76147.06
2022-11-22T08:34:39.176Z,76150.91
2022-11-22T08:37:07.389Z,76150.91
2022-11-22T08:39:33.955Z,76143.22
2022-11-22T08:42:00.511Z,76133.56
2022-11-22T08:44:27.029Z,76129.72
2022-11-22T08:46:53.502Z,76129.72
2022-11-22T08:49:20.274Z,76123.94
2022-11-22T08:51:46.817Z,76122.00
2022-11-22T08:54:14.001Z,76120.09
2022-11-22T08:56:40.542Z,76112.38
2022-11-22T08:59:07.825Z,76118.16
2022-11-22T09:01:34.424Z,76110.47
2022-11-22T09:04:01.120Z,76112.38
2022-11-22T09:12:00.614Z,76102.75
2022-11-22T09:14:27.144Z,76096.97
2022-11-22T09:16:53.648Z,76096.97
2022-11-22T09:19:20.199Z,76096.97
2022-11-22T09:21:46.669Z,76104.69
2022-11-22T09:24:13.193Z,76102.75
2022-11-22T09:26:39.802Z,76091.19
2022-11-22T09:29:06.332Z,76093.13
2022-11-22T09:31:32.866Z,76077.69
2022-11-22T09:33:59.558Z,76070.00
2022-11-22T09:36:26.660Z,76064.22
2022-11-22T09:38:53.375Z,76066.13
2022-11-22T09:41:25.163Z,76066.13
2022-11-22T09:44:10.144Z,76058.44
2022-11-22T09:46:51.835Z,76043.03
2022-11-22T09:49:24.228Z,76041.09
2022-11-22T09:51:53.942Z,76043.03
2022-11-22T09:54:24.220Z,76039.16
2022-11-22T09:56:53.013Z,76035.31
2022-11-22T09:59:25.627Z,76039.16
2022-11-22T10:02:18.314Z,76017.97
2022-11-22T10:04:49.664Z,76016.03
2022-11-22T10:07:37.603Z,76004.47
2022-11-22T10:10:06.245Z,76008.34
2022-11-22T10:12:35.949Z,76004.47
2022-11-22T10:15:08.246Z,75992.94
2022-11-22T10:17:53.159Z,75983.28
2022-11-22T10:20:20.984Z,75975.59
2022-11-22T10:22:48.109Z,75977.50
2022-11-22T10:25:16.682Z,75969.81
2022-11-22T10:27:44.451Z,75960.16
2022-11-22T10:30:20.031Z,75965.94
2022-11-22T10:32:49.500Z,75960.16
2022-11-22T10:35:18.794Z,75958.25
2022-11-22T10:37:48.097Z,75962.09
2022-11-22T10:40:21.050Z,75950.53
2022-11-22T10:42:53.412Z,75942.84
2022-11-22T10:45:19.994Z,75929.34
2022-11-22T10:48:05.464Z,75923.56
2022-11-22T10:50:50.819Z,75919.72
2022-11-22T10:53:20.126Z,75902.38
2022-11-22T10:55:52.759Z,75915.84
2022-11-22T10:58:19.280Z,75910.06
2022-11-22T11:00:49.134Z,75904.28
2022-11-22T11:03:15.804Z,75896.59
2022-11-22T11:06:01.004Z,75900.44
2022-11-22T11:11:34.664Z,75910.06
2022-11-22T11:14:04.925Z,75915.84
2022-11-22T11:16:32.847Z,75912.00
2022-11-22T11:19:06.810Z,75919.72
2022-11-22T11:21:33.336Z,75915.84
2022-11-22T11:23:59.815Z,75927.41
2022-11-22T11:26:28.247Z,75919.72
2022-11-22T11:29:13.424Z,75927.41
2022-11-22T11:31:46.070Z,75913.94
2022-11-22T11:34:16.906Z,75927.41
2022-11-22T11:36:43.507Z,75927.41
2022-11-22T11:39:19.846Z,75923.56
2022-11-22T11:41:47.429Z,75919.72
2022-11-22T11:44:32.323Z,75927.41
2022-11-22T11:46:59.495Z,75927.41
2022-11-22T11:49:33.885Z,75925.50
2022-11-22T11:52:28.704Z,75923.56
2022-11-22T11:55:00.489Z,75921.63
2022-11-22T11:57:36.849Z,75927.41
2022-11-22T12:00:07.190Z,75937.06
2022-11-22T12:02:40.887Z,75946.69
2022-11-22T12:05:13.678Z,75946.69
2022-11-22T12:07:40.287Z,75927.41
2022-11-22T12:10:27.195Z,75913.94
2022-11-22T12:13:04.001Z,75900.44
2022-11-22T12:15:33.841Z,75894.66
2022-11-22T12:18:06.224Z,75881.19
2022-11-22T12:20:35.870Z,75881.19
2022-11-22T12:23:08.331Z,75896.59
2022-11-22T12:25:42.306Z,75881.19
2022-11-22T12:28:16.745Z,75875.41
2022-11-22T12:30:44.918Z,75873.47
2022-11-22T12:33:17.987Z,75885.03
2022-11-22T12:35:45.904Z,75888.88
2022-11-22T12:38:21.655Z,75881.19
2022-11-22T12:40:51.114Z,75898.53
2022-11-22T12:43:36.194Z,75892.75
2022-11-22T12:46:26.084Z,75902.38
2022-11-22T12:48:56.004Z,75896.59
2022-11-22T12:51:28.506Z,75908.16
2022-11-22T12:54:00.764Z,75913.94
2022-11-22T12:56:32.727Z,75915.84
2022-11-22T12:59:08.850Z,75925.50
2022-11-22T13:01:49.004Z,75931.28
2022-11-22T13:04:19.515Z,75927.41
2022-11-22T13:06:53.563Z,75923.56
2022-11-22T13:09:23.828Z,75931.28
2022-11-22T13:12:09.348Z,75935.13
2022-11-22T13:14:38.378Z,75927.41
2022-11-22T13:17:12.084Z,75931.28
2022-11-22T13:19:46.989Z,75938.97
2022-11-22T13:22:16.797Z,75938.97
2022-11-22T13:25:03.395Z,75931.28
2022-11-22T13:27:39.592Z,75937.06
2022-11-22T13:30:16.768Z,75942.84
2022-11-22T13:32:43.350Z,75931.28
2022-11-22T13:35:12.731Z,75927.41
2022-11-22T13:38:05.589Z,75940.91
2022-11-22T13:40:37.530Z,75944.75
2022-11-22T13:43:21.957Z,75946.69
2022-11-22T13:45:50.258Z,75946.69
2022-11-22T13:48:37.120Z,75950.53
2022-11-22T13:51:03.833Z,75946.69
2022-11-22T13:53:34.615Z,75954.38
2022-11-22T13:56:16.508Z,75964.03
2022-11-22T13:58:50.406Z,75967.88
2022-11-22T14:01:36.306Z,75969.81
2022-11-22T14:04:28.425Z,75985.22
2022-11-22T14:06:57.897Z,75985.22
2022-11-22T14:09:36.941Z,75989.06
2022-11-22T14:12:21.930Z,75992.94
2022-11-22T14:15:04.761Z,76004.47
2022-11-22T14:17:31.249Z,76012.19
2022-11-22T14:20:11.068Z,76016.03
2022-11-22T14:22:43.830Z,76014.13
2022-11-22T14:25:29.254Z,76016.03
2022-11-22T14:28:01.704Z,76016.03
2022-11-22T14:30:55.382Z,76017.97
2022-11-22T14:33:23.208Z,76023.75
2022-11-22T14:35:59.165Z,76031.47
2022-11-22T14:38:30.776Z,76031.47
2022-11-22T14:41:33.125Z,76039.16
2022-11-22T14:44:18.404Z,76037.25
2022-11-22T14:46:57.712Z,76041.09
2022-11-22T14:49:30.246Z,76043.03
2022-11-22T14:51:57.549Z,76050.72
2022-11-22T14:54:28.628Z,76054.59
2022-11-22T14:57:02.748Z,76050.72
2022-11-22T14:59:50.641Z,76056.50
2022-11-22T15:02:26.175Z,76058.44
2022-11-22T15:09:10.054Z,76066.13
2022-11-22T15:09:17.241Z,76073.84
2022-11-22T15:10:46.124Z,76077.69
2022-11-22T15:13:28.407Z,76079.63
2022-11-22T15:59:13.669Z,76127.78
2022-11-22T16:01:42.520Z,76131.66
2022-11-22T16:04:28.285Z,76127.78
2022-11-22T16:06:56.510Z,76137.44
2022-11-22T16:09:29.592Z,76135.50
2022-11-22T16:12:01.632Z,76141.28
2022-11-22T16:14:42.339Z,76139.34
2022-11-22T16:17:25.695Z,76141.28
2022-11-22T16:19:52.685Z,76152.84
2022-11-22T16:22:30.099Z,76145.13
2022-11-22T16:25:15.513Z,76150.91
2022-11-22T16:27:51.420Z,76156.69
2022-11-22T16:30:23.363Z,76162.47
2022-11-22T16:32:53.821Z,76158.63
2022-11-22T16:35:29.558Z,76170.19
2022-11-22T16:37:56.503Z,76177.91
2022-11-22T16:40:23.065Z,76185.59
2022-11-22T16:42:49.706Z,76177.91
2022-11-22T16:45:17.595Z,76177.91
2022-11-22T16:47:44.800Z,76185.59
2022-11-22T16:50:15.569Z,76179.81
2022-11-22T16:52:42.625Z,76170.19
2022-11-22T16:55:16.436Z,76162.47
2022-11-22T16:57:43.172Z,76172.13
2022-11-22T17:00:10.308Z,76177.91
2022-11-22T17:02:38.297Z,76189.44
2022-11-22T17:05:05.528Z,76195.22
2022-11-22T17:07:32.417Z,76199.09
2022-11-22T17:09:59.091Z,76193.31
2022-11-22T17:12:32.181Z,76208.72
2022-11-22T17:15:00.213Z,76218.34
2022-11-22T17:17:26.752Z,76228.00
2022-11-22T17:19:53.928Z,76237.63
2022-11-22T17:22:20.840Z,76243.41
2022-11-22T17:24:47.352Z,76254.97
2022-11-22T17:27:14.202Z,76254.97
2022-11-22T17:29:56.493Z,76260.75
2022-11-22T17:32:23.081Z,76258.81
2022-11-22T17:34:49.779Z,76247.25
2022-11-22T17:37:16.359Z,76247.25
2022-11-22T17:39:42.967Z,76243.41
2022-11-22T17:42:09.540Z,76239.56
2022-11-22T17:44:36.110Z,76235.69
2022-11-22T17:47:03.015Z,76231.84
2022-11-22T17:49:29.737Z,76228.00
2022-11-22T17:51:56.580Z,76224.13
2022-11-22T17:54:23.159Z,76228.00
2022-11-22T17:56:49.713Z,76224.13
2022-11-22T17:59:16.526Z,76224.13
2022-11-22T18:01:43.398Z,76220.28
2022-11-22T18:04:10.024Z,76218.34
2022-11-22T18:06:36.650Z,76220.28
2022-11-22T18:09:03.250Z,76220.28
2022-11-22T18:11:29.790Z,76222.22
2022-11-22T18:13:56.277Z,76220.28
2022-11-22T18:16:28.364Z,76222.22
2022-11-22T18:18:59.050Z,76228.00
2022-11-22T18:21:30.165Z,76229.91
2022-11-22T18:24:00.108Z,76224.13
2022-11-22T18:26:42.809Z,76228.00
2022-11-22T18:31:57.004Z,76226.06
2022-11-22T18:34:23.697Z,76220.28
2022-11-22T18:37:01.844Z,76224.13
2022-11-22T18:39:30.471Z,76222.22
2022-11-22T18:41:57.324Z,76222.22
2022-11-22T18:44:24.552Z,76226.06
2022-11-22T18:46:51.178Z,76218.34
2022-11-22T18:49:17.826Z,76224.13
2022-11-22T18:51:44.392Z,76226.06
2022-11-22T18:54:11.085Z,76222.22
2022-11-22T18:56:40.293Z,76224.13
2022-11-22T18:59:08.388Z,76220.28
2022-11-22T19:01:35.284Z,76216.44
2022-11-22T19:04:03.055Z,76218.34
2022-11-22T19:06:30.230Z,76220.28
2022-11-22T19:08:57.366Z,76224.13
2022-11-22T19:11:23.992Z,76220.28
2022-11-22T19:13:50.587Z,76220.28
2022-11-22T19:16:18.696Z,76216.44
2022-11-22T19:18:45.701Z,76212.56
2022-11-22T19:21:14.009Z,76220.28
2022-11-22T19:23:41.183Z,76220.28
2022-11-22T19:26:12.031Z,76224.13
2022-11-22T19:28:38.544Z,76220.28
2022-11-22T19:31:09.415Z,76222.22
2022-11-22T19:33:36.682Z,76224.13
2022-11-22T19:36:04.581Z,76222.22
2022-11-22T19:38:31.086Z,76228.00
2022-11-22T19:40:58.016Z,76228.00
2022-11-22T19:43:24.961Z,76231.84
2022-11-22T19:45:51.562Z,76231.84
2022-11-22T19:48:18.615Z,76239.56
2022-11-22T19:50:45.229Z,76231.84
2022-11-22T19:53:11.804Z,76233.78
2022-11-22T19:55:45.155Z,76228.00
2022-11-22T19:58:12.187Z,76224.13
2022-11-22T20:00:38.849Z,76228.00
2022-11-22T20:03:05.398Z,76224.13
2022-11-22T20:05:32.484Z,76224.13
2022-11-22T20:07:59.372Z,76216.44
2022-11-22T20:10:26.193Z,76216.44
2022-11-22T20:12:52.813Z,76216.44
2022-11-22T20:15:19.380Z,76220.28
2022-11-22T20:17:45.970Z,76216.44
2022-11-22T20:20:12.494Z,76208.72
2022-11-22T20:22:39.145Z,76204.88
2022-11-22T20:25:05.928Z,76202.94
2022-11-22T20:27:32.575Z,76201.00
2022-11-22T20:30:01.325Z,76202.94
2022-11-22T20:32:28.896Z,76201.00
2022-11-22T20:34:55.514Z,76204.88
2022-11-22T20:37:22.052Z,76201.00
2022-11-22T20:39:48.627Z,76208.72
2022-11-22T20:45:03.529Z,76208.72
2022-11-22T20:47:30.632Z,76204.88
2022-11-22T20:49:57.204Z,76202.94
2022-11-22T20:52:23.776Z,76212.56
2022-11-22T20:54:50.258Z,76208.72
2022-11-22T20:57:16.844Z,76201.00
2022-11-22T20:59:43.381Z,76199.09
2022-11-22T21:02:10.403Z,76197.16
2022-11-22T21:04:37.218Z,76199.09
2022-11-22T21:07:03.907Z,76193.31
2022-11-22T21:09:30.594Z,76197.16
2022-11-22T21:11:57.119Z,76202.94
2022-11-22T21:14:23.791Z,76197.16
2022-11-22T21:16:50.295Z,76201.00
2022-11-22T21:19:17.821Z,76204.88
2022-11-22T21:21:44.356Z,76201.00
2022-11-22T21:24:11.624Z,76204.88
2022-11-22T21:26:38.134Z,76201.00
2022-11-22T21:29:11.531Z,76204.88
2022-11-22T21:31:42.419Z,76193.31
2022-11-22T21:34:11.341Z,76201.00
2022-11-22T21:36:37.894Z,76201.00
2022-11-22T21:39:04.426Z,76201.00
2022-11-22T21:41:40.370Z,76193.31
2022-11-22T21:44:08.036Z,76195.22
2022-11-22T21:46:34.595Z,76195.22
2022-11-22T21:49:01.214Z,76201.00
2022-11-22T21:51:27.750Z,76199.09
2022-11-22T21:54:02.793Z,76201.00
2022-11-22T21:56:29.537Z,76204.88
2022-11-22T21:58:56.186Z,76204.88
2022-11-22T22:01:23.227Z,76204.88
2022-11-22T22:03:50.211Z,76210.66
2022-11-22T22:06:16.808Z,76208.72
2022-11-22T22:08:43.437Z,76212.56
2022-11-22T22:11:10.151Z,76208.72
2022-11-22T22:13:37.666Z,76212.56
2022-11-22T22:16:06.843Z,76212.56
2022-11-22T22:18:34.458Z,76212.56
2022-11-22T22:21:02.025Z,76220.28
2022-11-22T22:23:28.679Z,76220.28
2022-11-22T22:25:59.310Z,76224.13
2022-11-22T22:28:27.519Z,76220.28
2022-11-22T22:31:01.240Z,76235.69
2022-11-22T22:33:28.656Z,76231.84
2022-11-22T22:35:57.012Z,76231.84
2022-11-22T22:38:23.558Z,76229.91
2022-11-22T22:40:54.085Z,76235.69
2022-11-22T22:43:21.095Z,76231.84
2022-11-22T22:45:47.573Z,76228.00
2022-11-22T22:48:14.041Z,76228.00
2022-11-22T22:50:40.585Z,76231.84
2022-11-22T22:53:07.218Z,76231.84
2022-11-22T22:55:33.801Z,76237.63
2022-11-22T22:58:00.945Z,76247.25
2022-11-22T23:00:27.423Z,76249.19
2022-11-22T23:02:55.445Z,76256.91
2022-11-22T23:05:22.796Z,76262.66
2022-11-22T23:07:49.421Z,76258.81
2022-11-22T23:10:16.014Z,76258.81
2022-11-22T23:12:42.561Z,76254.97
2022-11-22T23:15:09.300Z,76254.97
2022-11-22T23:17:35.904Z,76258.81
2022-11-22T23:20:02.475Z,76256.91
2022-11-22T23:22:28.998Z,76258.81
2022-11-22T23:24:55.518Z,76264.59
2022-11-22T23:27:22.137Z,76249.19
2022-11-22T23:29:48.652Z,76251.13
2022-11-22T23:32:15.197Z,76256.91
2022-11-22T23:34:41.687Z,76253.03
2022-11-22T23:37:08.179Z,76254.97
2022-11-22T23:39:34.644Z,76251.13
2022-11-22T23:42:01.270Z,76253.03
2022-11-22T23:44:27.716Z,76251.13
2022-11-22T23:46:54.169Z,76251.13
2022-11-22T23:49:20.660Z,76251.13
2022-11-22T23:51:47.668Z,76251.13
2022-11-22T23:54:14.325Z,76247.25
2022-11-22T23:56:40.935Z,76243.41
2022-11-22T23:59:07.511Z,76243.41
